Time;durP1;ratioP1;P1;durP2;ratioP2;P2;SDS_P1;SDS_P2;PMS_P1;PMS_P2;Temp;Humidity;BMP_temperature;BMP_pressure;BME280_temperature;BME280_humidity;BME280_pressure;Samples;Min_cycle;Max_cycle;Signal;HPM_P1;HPM_P2
2022/05/21 00:01:05;;;;;;;4.30;2.60;;;;;;;19.93;60.66;96429.88;107936;1265;159259;-76
2022/05/21 00:03:36;;;;;;;4.00;2.10;;;;;;;19.72;61.76;96416.08;108225;1265;52998;-76
2022/05/21 00:06:07;;;;;;;4.70;2.60;;;;;;;19.55;62.49;96414.34;108212;1265;53341;-75
2022/05/21 00:08:38;;;;;;;5.70;2.90;;;;;;;19.44;62.87;96413.72;108064;1265;132382;-76
2022/05/21 00:11:09;;;;;;;3.30;2.00;;;;;;;19.42;62.71;96405.60;108213;1265;34549;-76
2022/05/21 00:13:40;;;;;;;2.90;2.60;;;;;;;19.49;62.03;96385.50;107928;1265;110079;-76
2022/05/21 00:16:11;;;;;;;2.50;2.30;;;;;;;19.52;61.78;96381.75;108235;1265;33898;-76
2022/05/21 00:18:43;;;;;;;3.00;1.20;;;;;;;19.67;60.19;96358.30;107852;1265;148070;-77
2022/05/21 00:21:14;;;;;;;2.10;1.10;;;;;;;19.94;58.38;96344.59;108130;1265;74872;-76
2022/05/21 00:23:45;;;;;;;2.20;1.70;;;;;;;20.14;57.67;96350.70;108239;1265;37238;-76
2022/05/21 00:26:17;;;;;;;4.80;2.20;;;;;;;20.18;57.73;96345.57;106799;1267;1760624;-76
2022/05/21 00:28:50;;;;;;;4.70;2.70;;;;;;;20.13;57.86;96340.15;108124;1266;42723;-76
2022/05/21 00:31:22;;;;;;;5.80;2.40;;;;;;;19.97;59.06;96333.42;108087;1265;115904;-77
2022/05/21 00:33:52;;;;;;;3.50;2.10;;;;;;;19.77;59.95;96331.21;108251;1265;106876;-76
2022/05/21 00:36:24;;;;;;;4.90;2.60;;;;;;;19.58;60.64;96340.30;108194;1268;46867;-77
2022/05/21 00:38:55;;;;;;;3.20;2.20;;;;;;;19.45;61.34;96343.60;108074;1265;98513;-77
2022/05/21 00:41:26;;;;;;;4.70;2.00;;;;;;;19.34;61.59;96355.44;108118;1265;109759;-77
2022/05/21 00:43:58;;;;;;;4.00;1.40;;;;;;;19.23;62.35;96347.90;108234;1265;34059;-77
2022/05/21 00:46:31;;;;;;;2.10;1.50;;;;;;;19.05;63.31;96340.21;105789;1265;2043159;-78
2022/05/21 00:49:09;;;;;;;5.70;1.50;;;;;;;18.87;64.12;96329.72;108277;1266;32212;-76
2022/05/21 00:51:44;;;;;;;1.00;0.90;;;;;;;18.76;64.29;96333.67;108037;1265;93379;-76
2022/05/21 00:54:17;;;;;;;2.10;1.00;;;;;;;18.70;64.91;96327.90;108073;1267;33176;-76
2022/05/21 00:56:52;;;;;;;1.40;1.10;;;;;;;18.64;65.08;96335.23;108038;1267;76172;-77
2022/05/21 01:02:15;;;;;;;2.90;0.80;;;;;;;18.59;65.41;96321.91;107943;1268;136687;-77
2022/05/21 01:04:47;;;;;;;2.60;1.00;;;;;;;18.56;65.08;96313.61;107939;1267;109020;-78
2022/05/21 01:07:19;;;;;;;3.20;1.40;;;;;;;18.52;64.99;96306.59;108054;1267;42308;-79
2022/05/21 01:09:53;;;;;;;1.20;0.90;;;;;;;18.45;65.50;96303.36;107897;1267;78440;-79
2022/05/21 01:12:28;;;;;;;1.90;1.10;;;;;;;18.40;65.60;96303.30;107947;1267;109964;-78
2022/05/21 01:15:01;;;;;;;2.30;1.10;;;;;;;18.34;65.79;96295.14;108136;1267;35407;-79
2022/05/21 01:17:33;;;;;;;1.20;0.70;;;;;;;18.30;65.67;96287.68;108018;1267;89577;-79
2022/05/21 01:20:08;;;;;;;1.70;1.00;;;;;;;18.35;65.46;96280.08;108079;1268;98189;-79
2022/05/21 01:22:45;;;;;;;3.40;1.50;;;;;;;18.42;65.19;96277.05;107838;1268;137169;-79
2022/05/21 01:25:19;;;;;;;1.60;1.00;;;;;;;18.48;64.82;96278.91;108106;1265;36121;-76
2022/05/21 01:27:53;;;;;;;2.10;1.00;;;;;;;18.53;64.54;96273.63;108205;1265;59046;-77
2022/05/21 01:30:30;;;;;;;2.90;0.90;;;;;;;18.53;64.33;96280.23;106968;1265;1851254;-76
2022/05/21 01:33:03;;;;;;;3.90;1.20;;;;;;;18.53;64.28;96276.84;108110;1267;71934;-77
2022/05/21 01:35:34;;;;;;;4.80;0.90;;;;;;;18.55;64.04;96275.55;107827;1268;141373;-76
2022/05/21 01:38:06;;;;;;;2.20;1.30;;;;;;;18.57;63.98;96269.98;108035;1267;33867;-76
2022/05/21 01:40:37;;;;;;;1.70;0.80;;;;;;;18.59;63.88;96272.45;107969;1267;155497;-77
2022/05/21 01:45:57;;;;;;;1.70;0.90;;;;;;;18.57;63.99;96275.29;108112;1267;39768;-77
2022/05/21 01:48:30;;;;;;;3.10;1.20;;;;;;;18.54;64.20;96284.33;107625;1268;163620;-77
2022/05/21 01:51:01;;;;;;;2.10;1.10;;;;;;;18.51;64.42;96275.80;108175;1267;34670;-77
2022/05/21 01:53:32;;;;;;;3.00;1.40;;;;;;;18.49;64.68;96282.72;107940;1267;165719;-77
2022/05/21 01:56:04;;;;;;;2.90;1.20;;;;;;;18.49;65.14;96285.78;108231;1265;39142;-77
2022/05/21 01:58:35;;;;;;;1.70;1.10;;;;;;;18.43;65.40;96270.66;108167;1265;72704;-77
2022/05/21 02:01:08;;;;;;;1.30;1.10;;;;;;;18.36;65.41;96260.55;107925;1265;144392;-77
2022/05/21 02:03:40;;;;;;;2.10;1.20;;;;;;;18.30;65.50;96258.97;108117;1265;79369;-76
2022/05/21 02:06:11;;;;;;;1.90;0.90;;;;;;;18.28;65.45;96259.36;108013;1267;83410;-76
2022/05/21 02:08:42;;;;;;;2.70;1.30;;;;;;;18.29;65.60;96254.87;108068;1268;38755;-77
2022/05/21 02:11:13;;;;;;;3.10;1.30;;;;;;;18.26;65.82;96256.16;108120;1267;66735;-77
2022/05/21 02:13:44;;;;;;;2.70;1.40;;;;;;;18.21;66.19;96249.94;107947;1265;97123;-76
2022/05/21 02:16:15;;;;;;;1.60;1.30;;;;;;;18.13;66.59;96259.98;108066;1268;36549;-77
2022/05/21 02:18:47;;;;;;;2.30;1.20;;;;;;;18.05;66.88;96255.82;108101;1268;74504;-78
2022/05/21 02:21:18;;;;;;;2.10;1.00;;;;;;;17.99;66.81;96252.06;108028;1268;67695;-76
2022/05/21 02:23:49;;;;;;;2.10;1.40;;;;;;;17.93;67.18;96254.41;108115;1267;48193;-76
2022/05/21 02:26:20;;;;;;;2.20;1.50;;;;;;;17.90;67.07;96248.19;108121;1268;78024;-77
2022/05/21 02:28:51;;;;;;;2.70;1.30;;;;;;;17.87;67.13;96251.33;107940;1267;115460;-76
2022/05/21 02:31:22;;;;;;;2.60;1.40;;;;;;;17.86;67.18;96254.70;108262;1268;28087;-76
2022/05/21 02:33:53;;;;;;;2.80;1.30;;;;;;;17.86;67.34;96254.33;107942;1268;108103;-77
2022/05/21 02:39:25;;;;;;;1.70;0.80;;;;;;;17.89;67.28;96259.13;108188;1265;49490;-76
2022/05/21 02:39:28;;;;;;;4.40;1.40;;;;;;;18.07;67.05;96260.33;108277;1265;30630;-77
2022/05/21 02:42:01;;;;;;;2.20;1.10;;;;;;;18.15;66.75;96247.16;108196;1265;89487;-76
2022/05/21 02:44:32;;;;;;;2.60;1.50;;;;;;;18.14;66.75;96248.11;108227;1265;34221;-77
2022/05/21 02:47:04;;;;;;;2.10;1.10;;;;;;;18.15;66.46;96243.53;107973;1267;78949;-76
2022/05/21 02:49:34;;;;;;;3.90;1.50;;;;;;;18.17;66.45;96237.50;108104;1267;43642;-77
2022/05/21 02:52:08;;;;;;;3.10;1.40;;;;;;;18.21;66.22;96235.98;107933;1268;96077;-77
2022/05/21 02:54:39;;;;;;;2.50;1.70;;;;;;;18.21;66.12;96242.21;108061;1267;114818;-77
2022/05/21 02:57:11;;;;;;;3.60;1.60;;;;;;;18.18;66.16;96246.27;106275;1265;2115268;-77
2022/05/21 02:59:43;;;;;;;2.70;1.40;;;;;;;18.18;66.28;96244.88;107345;1265;214369;-77
2022/05/21 03:02:14;;;;;;;1.90;1.20;;;;;;;18.15;66.36;96233.97;106231;1267;2276882;-77
2022/05/21 03:04:47;;;;;;;4.30;1.20;;;;;;;18.11;66.38;96240.74;107981;1267;80833;-77
2022/05/21 03:07:18;;;;;;;2.80;1.30;;;;;;;18.06;66.43;96238.76;108183;1268;66161;-77
2022/05/21 03:12:41;;;;;;;2.50;1.30;;;;;;;18.03;66.45;96243.50;108200;1265;76154;-77
2022/05/21 03:15:12;;;;;;;1.80;1.20;;;;;;;18.11;66.27;96245.20;108191;1268;59761;-77
2022/05/21 03:17:43;;;;;;;2.70;1.50;;;;;;;18.16;66.24;96235.83;107827;1267;97527;-77
2022/05/21 03:20:27;;;;;;;3.00;1.30;;;;;;;18.14;66.39;96236.70;104419;1267;1759728;-77
2022/05/21 03:23:03;;;;;;;2.50;1.60;;;;;;;18.11;66.71;96237.90;105699;1267;1534418;-77
2022/05/21 03:25:36;;;;;;;1.80;1.00;;;;;;;18.08;66.90;96227.31;105694;1267;2298996;-77
2022/05/21 03:28:13;;;;;;;2.00;1.40;;;;;;;18.07;66.99;96231.20;104333;1267;2225976;-77
2022/05/21 03:30:50;;;;;;;4.10;1.10;;;;;;;18.10;66.90;96239.64;100827;1267;3196374;-77
2022/05/21 03:33:21;;;;;;;2.10;1.50;;;;;;;18.14;66.91;96242.74;104525;1267;1983111;-78
2022/05/21 03:35:53;;;;;;;1.60;1.20;;;;;;;18.16;66.84;96248.95;106904;1266;1192438;-77
2022/05/21 03:38:24;;;;;;;4.50;1.10;;;;;;;18.19;66.85;96249.27;107822;1265;142816;-77
2022/05/21 03:40:57;;;;;;;3.60;1.50;;;;;;;18.21;66.81;96254.39;107035;1268;1123742;-77
2022/05/21 03:43:28;;;;;;;3.60;1.40;;;;;;;18.23;66.86;96263.51;95796;1268;5494573;-77
2022/05/21 03:46:07;;;;;;;2.60;1.40;;;;;;;18.23;66.96;96270.34;107392;1267;204038;-78
2022/05/21 03:48:38;;;;;;;2.50;1.60;;;;;;;18.23;67.07;96269.86;107741;1265;96831;-77
2022/05/21 03:51:10;;;;;;;3.70;1.70;;;;;;;18.23;67.16;96265.88;107730;1265;107644;-78
2022/05/21 03:53:43;;;;;;;2.60;1.40;;;;;;;18.23;67.28;96267.49;105966;1268;2163787;-78
2022/05/21 03:56:17;;;;;;;4.90;1.50;;;;;;;18.24;67.29;96266.06;108111;1268;67434;-77
2022/05/21 03:58:49;;;;;;;2.40;1.50;;;;;;;18.25;67.29;96264.17;108175;1268;80150;-77
2022/05/21 04:01:21;;;;;;;2.30;1.40;;;;;;;18.25;67.30;96266.41;104732;1268;2380673;-78
2022/05/21 04:03:54;;;;;;;3.80;1.40;;;;;;;18.27;67.21;96261.33;99357;1268;4195171;-78
2022/05/21 04:06:26;;;;;;;2.70;1.50;;;;;;;18.31;67.13;96265.06;108075;1266;84771;-77
2022/05/21 04:08:57;;;;;;;3.30;1.50;;;;;;;18.32;67.18;96265.04;108258;1268;53626;-77
2022/05/21 04:11:29;;;;;;;3.70;1.80;;;;;;;18.33;67.08;96263.61;104863;1268;2517226;-77
2022/05/21 04:14:06;;;;;;;3.80;1.80;;;;;;;18.31;67.14;96271.82;103165;1266;6338538;-78
2022/05/21 04:16:38;;;;;;;6.00;1.70;;;;;;;18.28;67.39;96271.70;108115;1268;66972;-78
2022/05/21 04:19:10;;;;;;;3.50;1.80;;;;;;;18.25;67.50;96272.70;107817;1267;177961;-78
2022/05/21 04:21:43;;;;;;;4.00;1.50;;;;;;;18.25;67.51;96270.37;108016;1268;75916;-78
2022/05/21 04:24:17;;;;;;;2.10;1.50;;;;;;;18.25;67.58;96271.46;106661;1268;1330405;-78
2022/05/21 04:26:55;;;;;;;3.20;1.80;;;;;;;18.23;67.68;96269.10;107997;1266;138460;-78
2022/05/21 04:29:29;;;;;;;3.20;1.50;;;;;;;18.23;67.55;96266.36;106298;1268;1737903;-78
2022/05/21 04:32:01;;;;;;;5.00;1.80;;;;;;;18.26;67.60;96271.42;108099;1268;108047;-78
2022/05/21 04:34:35;;;;;;;6.00;1.70;;;;;;;18.33;67.50;96269.27;106549;1268;1879150;-78
2022/05/21 04:37:08;;;;;;;3.90;1.50;;;;;;;18.45;67.35;96267.86;105907;1268;1687052;-78
2022/05/21 04:39:44;;;;;;;3.20;1.90;;;;;;;18.56;67.05;96262.30;108058;1268;87623;-78
2022/05/21 04:42:15;;;;;;;3.90;1.70;;;;;;;18.68;66.73;96263.08;104904;1268;2509669;-78
2022/05/21 04:44:46;;;;;;;4.10;1.70;;;;;;;18.79;66.47;96253.98;107773;1267;193914;-78
2022/05/21 04:47:17;;;;;;;5.90;1.60;;;;;;;18.91;66.26;96249.39;108125;1267;31270;-78
2022/05/21 04:49:48;;;;;;;3.70;1.80;;;;;;;19.03;65.80;96258.48;107947;1268;123414;-78
2022/05/21 04:52:22;;;;;;;4.10;2.00;;;;;;;19.17;65.52;96261.42;108002;1268;49472;-78
2022/05/21 04:54:53;;;;;;;3.70;1.50;;;;;;;19.28;65.18;96258.88;108182;1267;30932;-77
2022/05/21 04:57:24;;;;;;;3.10;1.90;;;;;;;19.35;65.18;96249.40;108202;1268;34084;-77
2022/05/21 04:59:55;;;;;;;3.70;1.60;;;;;;;19.40;64.74;96248.82;108019;1268;124549;-77
2022/05/21 05:02:28;;;;;;;5.00;2.00;;;;;;;19.46;64.44;96243.92;107620;1268;196218;-77
2022/05/21 05:04:59;;;;;;;2.90;1.90;;;;;;;19.51;64.12;96242.59;106369;1268;1571484;-78
2022/05/21 05:07:30;;;;;;;5.00;2.10;;;;;;;19.51;63.88;96249.96;107283;1268;148647;-78
2022/05/21 05:10:01;;;;;;;3.30;1.60;;;;;;;19.50;63.82;96257.86;107517;1268;109170;-77
2022/05/21 05:12:32;;;;;;;2.90;1.80;;;;;;;19.47;63.86;96263.61;107578;1266;111948;-78
2022/05/21 05:15:04;;;;;;;4.40;1.60;;;;;;;19.41;64.25;96258.61;107680;1265;98487;-78
2022/05/21 05:17:36;;;;;;;3.20;2.00;;;;;;;19.33;64.47;96263.86;108236;1265;35621;-78
2022/05/21 05:20:10;;;;;;;5.80;2.20;;;;;;;19.27;64.71;96261.92;107921;1266;166798;-78
2022/05/21 05:22:41;;;;;;;5.00;1.80;;;;;;;19.24;64.81;96254.23;107461;1265;197482;-78
2022/05/21 05:25:12;;;;;;;4.30;1.60;;;;;;;19.26;65.04;96252.06;107905;1267;109898;-78
2022/05/21 05:27:43;;;;;;;4.10;1.90;;;;;;;19.28;64.99;96254.09;107941;1265;288560;-78
2022/05/21 05:30:16;;;;;;;3.60;2.20;;;;;;;19.26;65.16;96254.05;108083;1268;48116;-78
2022/05/21 05:32:48;;;;;;;4.50;2.00;;;;;;;19.27;65.47;96253.16;108102;1268;47246;-80
2022/05/21 05:35:20;;;;;;;4.60;2.00;;;;;;;19.24;65.42;96253.62;108095;1268;57489;-79
2022/05/21 05:37:52;;;;;;;6.40;2.60;;;;;;;19.19;65.61;96245.19;108245;1265;38337;-78
2022/05/21 05:40:24;;;;;;;5.10;2.10;;;;;;;19.13;65.81;96245.41;108318;1265;32060;-78
2022/05/21 05:42:56;;;;;;;7.70;2.30;;;;;;;19.06;65.89;96240.44;108099;1265;123230;-78
2022/05/21 05:45:27;;;;;;;6.80;2.20;;;;;;;19.02;66.05;96242.13;107372;1265;219553;-79
2022/05/21 05:48:02;;;;;;;5.10;2.20;;;;;;;18.98;66.42;96243.08;104993;1268;1841682;-79
2022/05/21 05:50:33;;;;;;;4.40;1.90;;;;;;;18.97;66.72;96242.50;106398;1265;1901113;-80
2022/05/21 05:53:06;;;;;;;6.40;2.30;;;;;;;18.94;67.04;96249.11;106202;1265;2039878;-80
2022/05/21 05:55:41;;;;;;;4.80;2.40;;;;;;;18.91;67.53;96261.15;104601;1265;2610165;-80
2022/05/21 06:01:06;;;;;;;6.30;2.40;;;;;;;18.61;71.19;96283.41;107180;1268;169635;-78
2022/05/21 06:03:39;;;;;;;3.60;1.90;;;;;;;18.23;73.40;96289.12;105799;1268;2322698;-78
2022/05/21 06:06:10;;;;;;;4.20;2.50;;;;;;;17.95;75.28;96280.92;107640;1265;116222;-79
2022/05/21 06:08:41;;;;;;;6.70;2.60;;;;;;;17.83;76.07;96281.91;104730;1267;1975682;-77
2022/05/21 06:11:19;;;;;;;7.50;2.90;;;;;;;17.71;76.55;96282.50;107693;1265;110036;-78
2022/05/21 06:13:50;;;;;;;5.40;2.90;;;;;;;17.62;77.38;96294.82;104954;1265;3508556;-78
2022/05/21 06:16:24;;;;;;;5.10;2.40;;;;;;;17.53;78.41;96303.70;104163;1265;1983380;-78
2022/05/21 06:18:55;;;;;;;5.70;2.80;;;;;;;17.38;79.24;96307.98;107768;1265;118382;-78
2022/05/21 06:21:38;;;;;;;7.30;2.70;;;;;;;17.26;80.00;96315.27;107939;1265;122437;-78
2022/05/21 06:24:10;;;;;;;8.70;3.40;;;;;;;17.14;81.77;96316.61;107424;1265;266449;-76
2022/05/21 06:26:41;;;;;;;4.40;2.00;;;;;;;17.05;82.54;96339.24;103463;1265;2327261;-78
2022/05/21 06:29:19;;;;;;;7.40;2.30;;;;;;;17.02;85.14;96337.48;105294;1268;1544637;-77
2022/05/21 06:31:51;;;;;;;5.70;2.40;;;;;;;16.93;86.16;96336.70;107708;1265;128371;-76
2022/05/21 06:34:22;;;;;;;2.90;1.80;;;;;;;16.86;86.73;96332.55;107529;1265;192575;-78
2022/05/21 06:36:54;;;;;;;3.50;2.40;;;;;;;16.85;87.03;96330.23;107395;1268;143583;-78
2022/05/21 06:39:26;;;;;;;6.20;2.00;;;;;;;16.89;87.09;96340.79;107682;1268;158255;-78
2022/05/21 06:41:57;;;;;;;5.20;3.00;;;;;;;16.99;87.43;96337.70;107472;1268;161432;-76
2022/05/21 06:44:29;;;;;;;9.10;2.90;;;;;;;17.10;87.26;96327.27;107523;1265;144490;-78
2022/05/21 06:47:03;;;;;;;4.30;2.80;;;;;;;17.15;87.13;96339.69;107395;1268;150754;-78
2022/05/21 06:49:37;;;;;;;3.20;2.40;;;;;;;17.13;86.37;96349.55;104278;1268;2337102;-77
2022/05/21 06:52:12;;;;;;;4.90;2.70;;;;;;;17.07;86.07;96352.09;105693;1268;2390173;-79
2022/05/21 06:55:15;;;;;;;6.20;3.70;;;;;;;17.04;85.71;96352.91;107236;1267;141316;-80
2022/05/21 06:57:47;;;;;;;5.40;3.00;;;;;;;17.05;85.58;96343.83;103309;1268;3705847;-81
2022/05/21 07:03:18;;;;;;;5.20;3.60;;;;;;;17.01;85.99;96359.42;103089;1267;5461231;-83
2022/05/21 07:08:50;;;;;;;5.60;3.80;;;;;;;17.04;85.38;96353.06;105765;1265;2069280;-80
2022/05/21 07:11:23;;;;;;;5.90;3.90;;;;;;;17.12;85.13;96361.02;104287;1265;2257597;-77
2022/05/21 07:13:58;;;;;;;7.70;3.70;;;;;;;17.17;84.49;96365.19;107786;1268;136425;-79
2022/05/21 07:16:34;;;;;;;4.50;3.60;;;;;;;17.17;83.91;96351.16;106565;1267;3587667;-78
2022/05/21 07:19:13;;;;;;;6.80;5.00;;;;;;;17.28;83.29;96355.08;107246;1268;136137;-80
2022/05/21 07:21:59;;;;;;;6.10;4.00;;;;;;;18.84;81.58;96370.77;92380;1268;5322073;-78
2022/05/21 07:24:31;;;;;;;5.90;3.80;;;;;;;19.74;74.56;96359.34;104502;1268;2656063;-78
2022/05/21 07:27:10;;;;;;;5.40;4.80;;;;;;;19.51;72.44;96353.76;103774;1267;2260498;-79
2022/05/21 07:29:47;;;;;;;5.80;3.40;;;;;;;19.48;72.22;96359.44;93651;1268;5695641;-78
2022/05/21 07:32:28;;;;;;;4.40;2.90;;;;;;;19.12;71.48;96369.22;96979;1268;5991449;-79
2022/05/21 07:35:04;;;;;;;3.60;3.00;;;;;;;18.60;72.65;96374.88;97767;1268;5285339;-78
2022/05/21 07:37:43;;;;;;;7.90;4.80;;;;;;;18.26;74.38;96354.08;106300;1268;304529;-80
2022/05/21 07:40:20;;;;;;;6.30;3.70;;;;;;;18.55;74.17;96362.31;103897;1267;2123873;-79
2022/05/21 07:42:54;;;;;;;4.40;3.20;;;;;;;19.75;73.35;96356.71;103363;1268;2358550;-78
2022/05/21 07:45:29;;;;;;;6.70;3.30;;;;;;;21.09;67.79;96357.61;105024;1268;1831466;-79
2022/05/21 07:48:07;;;;;;;6.10;3.40;;;;;;;21.54;64.72;96357.35;99780;1268;2415618;-82
2022/05/21 07:50:47;;;;;;;4.70;3.90;;;;;;;22.04;62.06;96343.27;105388;1267;1672504;-80
2022/05/21 07:53:25;;;;;;;5.90;3.50;;;;;;;22.54;60.60;96363.73;100243;1268;5091325;-80
2022/05/21 07:56:02;;;;;;;3.80;2.80;;;;;;;23.26;57.63;96356.64;103553;1268;2731281;-81
2022/05/21 07:58:37;;;;;;;5.10;2.60;;;;;;;22.98;56.83;96355.20;106821;1267;318827;-80
2022/05/21 08:01:11;;;;;;;4.60;2.10;;;;;;;21.54;59.40;96364.87;105781;1268;1548829;-81
2022/05/21 08:03:44;;;;;;;5.80;4.30;;;;;;;20.64;61.56;96348.04;102856;1268;2273068;-81
2022/05/21 08:06:17;;;;;;;7.00;6.10;;;;;;;21.53;61.50;96350.58;103967;1268;2343302;-81
2022/05/21 08:08:54;;;;;;;6.60;5.50;;;;;;;23.17;56.82;96336.55;104816;1267;2467498;-81
2022/05/21 08:11:26;;;;;;;6.40;3.00;;;;;;;24.36;54.56;96338.84;104973;1268;2703887;-81
2022/05/21 08:13:59;;;;;;;5.60;3.50;;;;;;;24.83;52.44;96341.73;106859;1267;221277;-79
2022/05/21 08:16:34;;;;;;;5.00;3.30;;;;;;;24.09;52.78;96341.77;104364;1268;1810838;-80
2022/05/21 08:19:09;;;;;;;5.10;3.00;;;;;;;24.09;53.61;96347.35;107847;1268;92965;-79
2022/05/21 08:21:44;;;;;;;4.30;2.90;;;;;;;24.71;53.52;96348.84;105655;1268;2442316;-78
2022/05/21 08:27:06;;;;;;;5.50;2.50;;;;;;;25.28;50.92;96372.81;107127;1268;297571;-78
2022/05/21 08:29:39;;;;;;;4.30;2.80;;;;;;;24.27;51.37;96367.88;107468;1268;210725;-79
2022/05/21 08:32:17;;;;;;;5.10;2.40;;;;;;;24.75;51.39;96360.95;107975;1268;85771;-79
2022/05/21 08:34:52;;;;;;;3.50;2.30;;;;;;;25.57;49.37;96365.66;107188;1268;306045;-80
2022/05/21 08:37:26;;;;;;;6.50;2.70;;;;;;;26.09;48.01;96376.56;107862;1268;213773;-80
2022/05/21 08:39:59;;;;;;;3.70;2.80;;;;;;;26.19;47.05;96384.05;107946;1268;1294160;-79
2022/05/21 08:42:42;;;;;;;8.10;2.60;;;;;;;26.02;47.28;96383.06;105880;1268;2006472;-79
2022/05/21 08:45:21;;;;;;;5.20;2.30;;;;;;;25.51;47.14;96377.80;106861;1268;1307698;-79
2022/05/21 08:48:03;;;;;;;3.80;2.60;;;;;;;25.08;46.59;96388.94;107516;1268;289323;-78
2022/05/21 08:50:39;;;;;;;4.40;3.10;;;;;;;25.68;47.13;96396.58;107717;1268;207091;-78
2022/05/21 08:53:17;;;;;;;3.60;2.30;;;;;;;26.27;44.40;96402.31;107222;1268;318233;-80
2022/05/21 08:55:53;;;;;;;4.60;2.60;;;;;;;26.12;44.11;96409.88;107339;1268;491730;-79
2022/05/21 08:58:33;;;;;;;5.20;2.50;;;;;;;25.22;44.80;96417.98;108076;1268;95686;-79
2022/05/21 09:01:10;;;;;;;4.70;2.00;;;;;;;23.83;46.97;96412.04;105502;1268;2237034;-79
2022/05/21 09:03:44;;;;;;;6.30;2.00;;;;;;;22.87;49.19;96414.84;107570;1268;96815;-79
2022/05/21 09:06:30;;;;;;;4.60;1.70;;;;;;;21.72;52.09;96411.56;107132;1268;212418;-81
2022/05/21 09:09:17;;;;;;;2.90;2.30;;;;;;;20.78;54.47;96423.87;107603;1267;194786;-78
2022/05/21 09:11:59;;;;;;;4.60;1.90;;;;;;;20.53;56.31;96420.27;107475;1265;215669;-79
2022/05/21 09:14:41;;;;;;;5.40;2.10;;;;;;;20.30;56.48;96421.48;107815;1268;110209;-78
2022/05/21 09:17:16;;;;;;;3.90;2.30;;;;;;;20.26;56.81;96411.23;106514;1268;265549;-78
2022/05/21 09:19:52;;;;;;;3.10;1.70;;;;;;;20.25;56.93;96431.66;106298;1268;301065;-77
2022/05/21 09:22:25;;;;;;;6.90;1.70;;;;;;;20.34;55.49;96432.04;107940;1268;97434;-79
2022/05/21 09:24:58;;;;;;;6.20;1.90;;;;;;;19.97;54.95;96449.67;107961;1268;107306;-79
2022/05/21 09:27:33;;;;;;;1.50;1.10;;;;;;;19.90;55.49;96444.63;107836;1267;94490;-76
2022/05/21 09:30:18;;;;;;;3.80;1.70;;;;;;;19.91;54.93;96440.05;106527;1268;1227100;-78
2022/05/21 09:32:52;;;;;;;4.10;1.90;;;;;;;19.56;55.20;96442.48;105057;1268;2047087;-77
2022/05/21 09:35:27;;;;;;;2.50;1.70;;;;;;;19.43;54.63;96449.39;108242;1268;46669;-78
2022/05/21 09:37:59;;;;;;;3.50;1.60;;;;;;;19.13;55.16;96456.61;107782;1268;289140;-77
2022/05/21 09:40:36;;;;;;;3.00;1.20;;;;;;;19.14;55.93;96459.65;108239;1268;48822;-78
2022/05/21 09:46:21;;;;;;;9.10;4.30;;;;;;;19.22;55.97;96471.35;106333;1268;1724705;-77
2022/05/21 09:48:54;;;;;;;3.00;1.20;;;;;;;19.50;55.98;96477.72;108289;1268;51619;-78
2022/05/21 09:51:31;;;;;;;3.90;1.80;;;;;;;19.58;55.20;96471.76;108253;1268;84573;-78
2022/05/21 09:54:18;;;;;;;1.70;1.40;;;;;;;19.51;54.97;96466.08;107861;1268;138507;-78
2022/05/21 09:56:53;;;;;;;4.90;1.50;;;;;;;19.56;55.12;96462.80;107981;1267;78961;-76
2022/05/21 09:59:30;;;;;;;2.60;1.30;;;;;;;19.56;55.06;96474.95;108001;1268;83404;-76
2022/05/21 10:04:55;;;;;;;4.30;1.40;;;;;;;19.70;54.41;96463.58;104372;1268;961736;-72
2022/05/21 10:13:21;;;;;;;4.40;1.40;;;;;;;19.55;53.20;96466.22;107152;1273;103079;-72
2022/05/21 10:15:58;;;;;;;4.30;1.10;;;;;;;19.62;53.47;96469.27;107256;1273;39376;-72
2022/05/21 10:18:34;;;;;;;1.10;0.80;;;;;;;19.75;53.59;96468.57;107108;1274;63967;-72
2022/05/21 10:21:13;;;;;;;4.60;1.40;;;;;;;19.78;52.46;96474.42;107208;1275;38545;-72
2022/05/21 10:23:50;;;;;;;3.20;1.30;;;;;;;19.93;53.08;96481.39;107451;1273;34553;-71
2022/05/21 10:26:46;;;;;;;4.30;1.40;;;;;;;20.07;51.87;96474.23;107245;1273;107389;-73
2022/05/21 10:29:50;;;;;;;3.80;1.10;;;;;;;20.26;53.02;96474.60;107211;1274;72289;-72
2022/05/21 10:32:41;;;;;;;2.50;1.30;;;;;;;20.60;52.27;96464.00;107154;1275;83257;-73
2022/05/21 10:35:31;;;;;;;3.80;1.50;;;;;;;20.55;50.56;96470.70;107408;1274;30933;-73
2022/05/21 10:38:10;;;;;;;3.50;1.60;;;;;;;20.35;50.85;96465.45;107262;1275;54266;-72
2022/05/21 10:40:48;;;;;;;2.60;1.20;;;;;;;20.42;50.31;96468.45;107360;1274;33084;-72
2022/05/21 10:43:38;;;;;;;1.80;1.00;;;;;;;20.31;49.88;96474.73;107184;1274;61916;-72
2022/05/21 10:46:25;;;;;;;1.90;0.70;;;;;;;20.35;50.01;96476.00;107296;1274;30608;-72
2022/05/21 10:49:23;;;;;;;1.20;0.80;;;;;;;20.25;49.13;96471.49;107423;1274;33928;-72
2022/05/21 10:52:10;;;;;;;2.60;1.10;;;;;;;20.34;49.30;96462.52;107375;1275;31223;-71
2022/05/21 10:54:55;;;;;;;2.30;1.00;;;;;;;20.45;49.12;96470.83;107391;1274;34071;-71
2022/05/21 10:57:40;;;;;;;3.20;1.10;;;;;;;20.60;48.54;96461.00;107431;1274;27768;-71
2022/05/21 11:00:15;;;;;;;3.00;1.10;;;;;;;20.73;49.09;96457.33;107378;1274;36931;-71
2022/05/21 11:03:11;;;;;;;5.50;1.80;;;;;;;20.75;48.25;96463.37;107061;1274;37622;-72
2022/05/21 11:06:07;;;;;;;3.10;1.40;;;;;;;20.84;49.29;96459.05;107350;1274;40844;-72
2022/05/21 11:08:48;;;;;;;4.50;1.20;;;;;;;20.88;47.69;96450.35;107225;1274;32016;-72
2022/05/21 11:11:33;;;;;;;5.00;1.40;;;;;;;20.63;46.74;96465.70;107194;1274;53413;-72
2022/05/21 11:14:12;;;;;;;1.90;0.90;;;;;;;20.69;47.18;96458.93;107294;1274;30522;-73
2022/05/21 11:16:53;;;;;;;1.30;0.90;;;;;;;20.55;46.20;96454.62;107242;1274;43356;-72
2022/05/21 11:19:31;;;;;;;3.40;1.20;;;;;;;20.35;46.17;96460.84;107448;1274;36414;-72
2022/05/21 11:22:06;;;;;;;2.20;1.00;;;;;;;20.58;46.11;96467.32;107278;1274;45166;-72
2022/05/21 11:24:45;;;;;;;0.80;0.80;;;;;;;20.71;46.14;96466.97;107173;1274;58621;-71
2022/05/21 11:27:24;;;;;;;4.00;1.00;;;;;;;20.73;45.18;96463.77;107185;1274;47739;-71
2022/05/21 11:30:01;;;;;;;1.10;0.90;;;;;;;20.77;46.05;96458.79;107380;1274;34583;-72
2022/05/21 11:38:34;;;;;;;3.30;1.00;;;;;;;21.10;43.44;96470.66;107323;1274;43798;-72
2022/05/21 11:41:27;;;;;;;3.10;1.00;;;;;;;21.04;42.78;96458.45;107340;1274;52769;-71
2022/05/21 11:46:59;;;;;;;2.40;1.00;;;;;;;20.88;42.27;96466.92;107267;1274;33347;-72
2022/05/21 11:49:42;;;;;;;2.90;0.70;;;;;;;21.01;42.63;96453.70;107271;1274;29386;-72
2022/05/21 11:52:48;;;;;;;3.00;0.80;;;;;;;20.99;42.98;96473.98;107284;1274;31864;-72
2022/05/21 11:55:23;;;;;;;1.20;0.60;;;;;;;21.10;41.52;96461.80;106964;1274;52136;-72
2022/05/21 11:57:56;;;;;;;2.20;0.70;;;;;;;21.07;41.60;96464.59;107048;1274;34107;-71
2022/05/21 12:00:50;;;;;;;2.10;0.80;;;;;;;21.19;41.70;96455.10;107117;1274;42887;-72
2022/05/21 12:03:23;;;;;;;1.30;0.60;;;;;;;21.39;41.54;96462.89;107243;1274;51770;-71
2022/05/21 12:06:23;;;;;;;1.30;0.60;;;;;;;21.61;41.50;96460.70;107377;1274;32702;-71
2022/05/21 12:09:23;;;;;;;4.50;1.00;;;;;;;21.64;41.44;96464.22;107353;1274;36554;-71
2022/05/21 12:12:21;;;;;;;1.00;0.80;;;;;;;21.74;42.03;96461.04;108174;1274;37976;-72
2022/05/21 12:14:55;;;;;;;1.90;0.90;;;;;;;21.77;41.75;96464.50;107214;1274;44123;-73
2022/05/21 12:17:44;;;;;;;2.60;0.70;;;;;;;21.83;40.60;96459.02;107357;1273;34742;-72
2022/05/21 12:20:17;;;;;;;1.70;0.60;;;;;;;21.83;40.81;96463.17;107128;1274;36650;-72
2022/05/21 12:22:55;;;;;;;3.40;1.00;;;;;;;21.83;39.58;96450.13;107271;1274;39687;-72
2022/05/21 12:25:59;;;;;;;0.40;0.40;;;;;;;21.74;39.48;96446.40;107491;1273;30476;-72
2022/05/21 12:28:46;;;;;;;1.70;0.70;;;;;;;21.58;39.96;96457.48;107096;1274;54538;-72
2022/05/21 12:31:27;;;;;;;0.70;0.50;;;;;;;21.57;40.65;96456.21;107252;1274;32709;-72
2022/05/21 12:34:16;;;;;;;1.20;0.40;;;;;;;21.68;39.32;96455.97;107416;1274;40627;-72
2022/05/21 12:37:03;;;;;;;1.50;0.50;;;;;;;21.64;40.42;96466.77;107033;1274;44988;-72
2022/05/21 12:39:42;;;;;;;5.70;0.80;;;;;;;21.81;40.15;96455.56;107400;1274;28990;-72